createdAt,value
2022-10-11T00:05:57.300Z,9.83
2022-10-11T00:20:53.285Z,9.04
2022-10-11T00:35:49.623Z,8.25
2022-10-11T00:50:45.819Z,8.07
2022-10-11T01:05:41.917Z,8.24
2022-10-11T01:20:37.861Z,7.76
2022-10-11T01:35:33.685Z,7.2
2022-10-11T01:50:29.141Z,6.87
2022-10-11T02:05:24.862Z,6.27
2022-10-11T02:20:20.883Z,6.23
2022-10-11T02:35:17.196Z,6.39
2022-10-11T02:50:13.573Z,7.35
2022-10-11T03:05:09.589Z,7.35
2022-10-11T03:20:06.594Z,8.08
2022-10-11T03:35:03.006Z,8.07
2022-10-11T03:49:59.131Z,8.27
2022-10-11T04:04:55.943Z,8.73
2022-10-11T04:19:52.754Z,8.59
2022-10-11T04:34:49.056Z,8.35
2022-10-11T04:49:45.870Z,8.47
2022-10-11T05:04:42.112Z,8.51
2022-10-11T05:19:38.524Z,8.57
2022-10-11T05:34:34.683Z,8.63
2022-10-11T05:49:30.980Z,8.69
2022-10-11T06:04:26.990Z,8.83
2022-10-11T06:19:23.200Z,8.7
2022-10-11T06:34:18.947Z,8.5
2022-10-11T06:49:19.411Z,8.89
2022-10-11T07:04:12.529Z,9.12
2022-10-11T07:19:09.332Z,9.55
2022-10-11T07:34:05.924Z,9.84
2022-10-11T07:49:02.090Z,9.87
2022-10-11T08:03:58.542Z,10.17
2022-10-11T08:18:54.723Z,10.37
2022-10-11T08:33:51.595Z,10.99
2022-10-11T08:48:48.085Z,10.42
2022-10-11T09:03:43.710Z,11.1
2022-10-11T09:18:40.429Z,11.28
2022-10-11T09:33:36.523Z,13.43
2022-10-11T09:48:33.382Z,13.49
2022-10-11T10:03:29.507Z,12.06
2022-10-11T10:18:25.764Z,12.39
2022-10-11T10:33:21.909Z,12.88
2022-10-11T10:48:18.954Z,14.14
2022-10-11T11:03:16.009Z,14.33
2022-10-11T11:18:12.207Z,13.53
2022-10-11T11:33:08.506Z,15.53
2022-10-11T11:48:05.079Z,15.52
2022-10-11T12:03:02.078Z,16.54
2022-10-11T12:17:58.851Z,14.5
2022-10-11T12:32:55.005Z,15.56
2022-10-11T12:47:51.190Z,15.97
2022-10-11T13:02:46.816Z,14.61
2022-10-11T13:17:43.414Z,14.47
2022-10-11T13:32:39.762Z,14.82
2022-10-11T13:47:35.557Z,14.9
2022-10-11T14:02:31.395Z,14.6
2022-10-11T14:17:27.649Z,14.79
2022-10-11T14:32:24.540Z,14.83
2022-10-11T14:47:21.011Z,14.47
2022-10-11T15:02:17.203Z,14.36
2022-10-11T15:17:13.197Z,14.35
2022-10-11T15:32:09.288Z,14.43
2022-10-11T15:47:05.428Z,14.4
2022-10-11T16:02:01.556Z,13.81
2022-10-11T16:16:59.999Z,12.88
2022-10-11T16:31:53.283Z,11.92
2022-10-11T16:46:48.741Z,10.66
2022-10-11T17:01:43.919Z,9.92
2022-10-11T17:16:39.597Z,9.26
2022-10-11T17:31:35.758Z,8.75
2022-10-11T17:46:31.797Z,8.19
2022-10-11T18:01:28.059Z,7.98
2022-10-11T18:16:23.914Z,7.56
2022-10-11T18:31:20.403Z,7.38
2022-10-11T18:46:16.277Z,7.23
2022-10-11T19:01:12.507Z,6.95
2022-10-11T19:16:08.963Z,6.7
2022-10-11T19:31:04.511Z,6.47
2022-10-11T19:46:00.355Z,6.59
2022-10-11T20:00:56.782Z,6.66
2022-10-11T20:15:52.950Z,6.27
2022-10-11T20:30:48.822Z,6.04
2022-10-11T20:45:45.056Z,6.11
2022-10-11T22:00:26.292Z,5.49
2022-10-11T22:15:22.438Z,4.97
2022-10-11T22:30:18.691Z,4.98
2022-10-11T22:45:13.724Z,5.01
2022-10-11T23:00:10.226Z,4.78
2022-10-11T23:15:06.136Z,5.01
2022-10-11T23:30:02.104Z,4.57
2022-10-11T23:44:57.612Z,4.15
2022-10-11T23:59:53.811Z,4.05
